sensor_id;sensor_type;location;lat;lon;timestamp;P1;durP1;ratioP1;P2;durP2;ratioP2
34302;SDS011;20785;50.020;19.916;2023-03-12T00:00:46;16.40;;;8.30;;
34302;SDS011;20785;50.020;19.916;2023-03-12T00:07:09;13.80;;;7.80;;
34302;SDS011;20785;50.020;19.916;2023-03-12T00:13:12;17.60;;;8.60;;
34302;SDS011;20785;50.020;19.916;2023-03-12T00:19:15;12.40;;;6.80;;
34302;SDS011;20785;50.020;19.916;2023-03-12T00:25:18;12.30;;;7.10;;
34302;SDS011;20785;50.020;19.916;2023-03-12T00:31:24;15.20;;;8.40;;
34302;SDS011;20785;50.020;19.916;2023-03-12T00:37:29;14.30;;;8.60;;
34302;SDS011;20785;50.020;19.916;2023-03-12T00:43:34;13.60;;;7.50;;
34302;SDS011;20785;50.020;19.916;2023-03-12T00:49:38;13.50;;;7.70;;
34302;SDS011;20785;50.020;19.916;2023-03-12T00:55:41;13.40;;;7.50;;
34302;SDS011;20785;50.020;19.916;2023-03-12T01:01:44;14.80;;;6.70;;
34302;SDS011;20785;50.020;19.916;2023-03-12T01:07:48;14.20;;;7.20;;
34302;SDS011;20785;50.020;19.916;2023-03-12T01:13:51;13.30;;;7.90;;
34302;SDS011;20785;50.020;19.916;2023-03-12T01:19:54;14.70;;;8.70;;
34302;SDS011;20785;50.020;19.916;2023-03-12T01:25:57;13.30;;;7.70;;
34302;SDS011;20785;50.020;19.916;2023-03-12T01:32:01;13.60;;;7.80;;
34302;SDS011;20785;50.020;19.916;2023-03-12T01:38:05;13.40;;;8.00;;
34302;SDS011;20785;50.020;19.916;2023-03-12T01:44:12;17.60;;;9.20;;
34302;SDS011;20785;50.020;19.916;2023-03-12T01:50:16;17.30;;;9.60;;
34302;SDS011;20785;50.020;19.916;2023-03-12T01:56:19;18.70;;;10.30;;
34302;SDS011;20785;50.020;19.916;2023-03-12T02:02:25;16.90;;;8.80;;
34302;SDS011;20785;50.020;19.916;2023-03-12T02:08:32;14.70;;;8.80;;
34302;SDS011;20785;50.020;19.916;2023-03-12T02:14:37;14.40;;;8.50;;
34302;SDS011;20785;50.020;19.916;2023-03-12T02:26:55;13.90;;;8.60;;
34302;SDS011;20785;50.020;19.916;2023-03-12T02:32:58;14.30;;;8.40;;
34302;SDS011;20785;50.020;19.916;2023-03-12T02:39:04;14.90;;;8.40;;
34302;SDS011;20785;50.020;19.916;2023-03-12T02:45:07;19.30;;;8.90;;
34302;SDS011;20785;50.020;19.916;2023-03-12T02:51:11;12.10;;;7.30;;
34302;SDS011;20785;50.020;19.916;2023-03-12T02:57:14;13.60;;;7.20;;
34302;SDS011;20785;50.020;19.916;2023-03-12T03:03:17;14.60;;;8.00;;
34302;SDS011;20785;50.020;19.916;2023-03-12T03:09:21;14.60;;;8.30;;
34302;SDS011;20785;50.020;19.916;2023-03-12T03:15:24;13.50;;;8.00;;
34302;SDS011;20785;50.020;19.916;2023-03-12T03:21:28;14.20;;;7.80;;
34302;SDS011;20785;50.020;19.916;2023-03-12T03:27:31;11.00;;;6.30;;
34302;SDS011;20785;50.020;19.916;2023-03-12T03:33:35;8.70;;;5.40;;
34302;SDS011;20785;50.020;19.916;2023-03-12T03:39:47;8.00;;;4.90;;
34302;SDS011;20785;50.020;19.916;2023-03-12T03:46:02;10.90;;;5.80;;
34302;SDS011;20785;50.020;19.916;2023-03-12T03:52:09;9.30;;;5.10;;
34302;SDS011;20785;50.020;19.916;2023-03-12T03:58:14;11.80;;;5.80;;
34302;SDS011;20785;50.020;19.916;2023-03-12T04:04:18;10.80;;;6.10;;
34302;SDS011;20785;50.020;19.916;2023-03-12T04:10:22;10.80;;;5.60;;
34302;SDS011;20785;50.020;19.916;2023-03-12T04:16:26;10.60;;;5.30;;
34302;SDS011;20785;50.020;19.916;2023-03-12T04:22:30;9.30;;;5.00;;
34302;SDS011;20785;50.020;19.916;2023-03-12T04:28:33;9.10;;;5.60;;
34302;SDS011;20785;50.020;19.916;2023-03-12T04:34:37;9.30;;;4.90;;
34302;SDS011;20785;50.020;19.916;2023-03-12T04:40:55;10.00;;;5.20;;
34302;SDS011;20785;50.020;19.916;2023-03-12T04:47:03;10.90;;;5.40;;
34302;SDS011;20785;50.020;19.916;2023-03-12T04:53:06;11.10;;;6.20;;
34302;SDS011;20785;50.020;19.916;2023-03-12T04:59:13;11.70;;;5.60;;
34302;SDS011;20785;50.020;19.916;2023-03-12T05:05:16;8.50;;;5.20;;
34302;SDS011;20785;50.020;19.916;2023-03-12T05:11:20;9.20;;;4.80;;
34302;SDS011;20785;50.020;19.916;2023-03-12T05:17:24;8.60;;;4.80;;
34302;SDS011;20785;50.020;19.916;2023-03-12T05:23:28;10.50;;;5.40;;
34302;SDS011;20785;50.020;19.916;2023-03-12T05:29:32;11.10;;;5.60;;
34302;SDS011;20785;50.020;19.916;2023-03-12T05:35:37;11.10;;;5.60;;
34302;SDS011;20785;50.020;19.916;2023-03-12T05:41:41;15.00;;;7.10;;
34302;SDS011;20785;50.020;19.916;2023-03-12T05:47:50;11.60;;;5.50;;
34302;SDS011;20785;50.020;19.916;2023-03-12T05:53:54;9.20;;;4.50;;
34302;SDS011;20785;50.020;19.916;2023-03-12T05:59:57;9.00;;;4.90;;
34302;SDS011;20785;50.020;19.916;2023-03-12T06:06:00;8.40;;;5.10;;
34302;SDS011;20785;50.020;19.916;2023-03-12T06:12:04;8.50;;;5.00;;
34302;SDS011;20785;50.020;19.916;2023-03-12T06:18:13;10.50;;;5.30;;
34302;SDS011;20785;50.020;19.916;2023-03-12T06:24:18;9.50;;;5.50;;
34302;SDS011;20785;50.020;19.916;2023-03-12T06:30:29;10.10;;;5.70;;
34302;SDS011;20785;50.020;19.916;2023-03-12T06:36:32;9.70;;;5.10;;
34302;SDS011;20785;50.020;19.916;2023-03-12T06:42:38;9.70;;;5.20;;
34302;SDS011;20785;50.020;19.916;2023-03-12T06:48:41;8.70;;;4.90;;
34302;SDS011;20785;50.020;19.916;2023-03-12T06:54:44;7.70;;;4.70;;
34302;SDS011;20785;50.020;19.916;2023-03-12T07:00:48;7.20;;;4.30;;
34302;SDS011;20785;50.020;19.916;2023-03-12T07:06:53;7.50;;;4.50;;
34302;SDS011;20785;50.020;19.916;2023-03-12T07:12:59;8.70;;;4.70;;
34302;SDS011;20785;50.020;19.916;2023-03-12T07:19:02;7.90;;;4.10;;
34302;SDS011;20785;50.020;19.916;2023-03-12T07:25:05;6.40;;;4.30;;
34302;SDS011;20785;50.020;19.916;2023-03-12T07:31:13;6.80;;;3.60;;
34302;SDS011;20785;50.020;19.916;2023-03-12T07:37:16;6.40;;;3.70;;
34302;SDS011;20785;50.020;19.916;2023-03-12T07:43:19;5.90;;;3.20;;
34302;SDS011;20785;50.020;19.916;2023-03-12T07:49:24;5.90;;;3.00;;
34302;SDS011;20785;50.020;19.916;2023-03-12T07:55:29;5.70;;;2.70;;
34302;SDS011;20785;50.020;19.916;2023-03-12T08:01:33;4.80;;;2.70;;
34302;SDS011;20785;50.020;19.916;2023-03-12T08:07:37;4.20;;;2.40;;
34302;SDS011;20785;50.020;19.916;2023-03-12T08:13:40;3.80;;;2.30;;
34302;SDS011;20785;50.020;19.916;2023-03-12T08:19:43;2.90;;;1.80;;
34302;SDS011;20785;50.020;19.916;2023-03-12T08:25:47;3.90;;;2.20;;
34302;SDS011;20785;50.020;19.916;2023-03-12T08:31:51;5.00;;;2.00;;
34302;SDS011;20785;50.020;19.916;2023-03-12T08:38:06;5.50;;;2.20;;
34302;SDS011;20785;50.020;19.916;2023-03-12T08:44:10;3.60;;;1.70;;
34302;SDS011;20785;50.020;19.916;2023-03-12T08:50:13;3.50;;;1.80;;
34302;SDS011;20785;50.020;19.916;2023-03-12T08:56:18;4.30;;;1.30;;
34302;SDS011;20785;50.020;19.916;2023-03-12T09:02:21;2.10;;;1.40;;
34302;SDS011;20785;50.020;19.916;2023-03-12T09:08:25;4.50;;;1.70;;
34302;SDS011;20785;50.020;19.916;2023-03-12T09:14:28;4.20;;;1.60;;
34302;SDS011;20785;50.020;19.916;2023-03-12T09:20:51;2.90;;;1.40;;
34302;SDS011;20785;50.020;19.916;2023-03-12T09:26:54;3.30;;;1.50;;
34302;SDS011;20785;50.020;19.916;2023-03-12T09:32:57;2.60;;;1.50;;
34302;SDS011;20785;50.020;19.916;2023-03-12T09:39:01;4.60;;;1.50;;
34302;SDS011;20785;50.020;19.916;2023-03-12T09:45:04;4.00;;;1.60;;
34302;SDS011;20785;50.020;19.916;2023-03-12T09:51:16;3.20;;;1.60;;
34302;SDS011;20785;50.020;19.916;2023-03-12T09:57:23;4.10;;;1.90;;
34302;SDS011;20785;50.020;19.916;2023-03-12T10:16:19;3.70;;;2.10;;
34302;SDS011;20785;50.020;19.916;2023-03-12T10:28:59;5.10;;;2.70;;
34302;SDS011;20785;50.020;19.916;2023-03-12T10:35:15;4.00;;;2.50;;
34302;SDS011;20785;50.020;19.916;2023-03-12T10:41:24;4.90;;;2.60;;
34302;SDS011;20785;50.020;19.916;2023-03-12T10:47:34;5.50;;;2.80;;
34302;SDS011;20785;50.020;19.916;2023-03-12T10:53:42;6.80;;;2.40;;
34302;SDS011;20785;50.020;19.916;2023-03-12T10:59:51;5.00;;;2.70;;
34302;SDS011;20785;50.020;19.916;2023-03-12T11:06:18;5.20;;;2.50;;
34302;SDS011;20785;50.020;19.916;2023-03-12T11:12:27;7.90;;;2.80;;
34302;SDS011;20785;50.020;19.916;2023-03-12T11:18:33;5.30;;;2.50;;
34302;SDS011;20785;50.020;19.916;2023-03-12T11:24:53;5.10;;;2.70;;
34302;SDS011;20785;50.020;19.916;2023-03-12T11:31:01;5.50;;;2.70;;
34302;SDS011;20785;50.020;19.916;2023-03-12T12:22:05;7.30;;;3.60;;
34302;SDS011;20785;50.020;19.916;2023-03-12T12:34:53;8.30;;;3.50;;
34302;SDS011;20785;50.020;19.916;2023-03-12T12:41:12;6.40;;;3.50;;
34302;SDS011;20785;50.020;19.916;2023-03-12T12:47:19;5.30;;;2.90;;
34302;SDS011;20785;50.020;19.916;2023-03-12T12:53:39;5.10;;;3.20;;
34302;SDS011;20785;50.020;19.916;2023-03-12T12:59:57;7.10;;;3.60;;
34302;SDS011;20785;50.020;19.916;2023-03-12T13:06:08;5.90;;;3.00;;
34302;SDS011;20785;50.020;19.916;2023-03-12T13:12:14;7.10;;;3.20;;
34302;SDS011;20785;50.020;19.916;2023-03-12T13:18:26;5.60;;;3.10;;
34302;SDS011;20785;50.020;19.916;2023-03-12T13:24:41;5.00;;;2.70;;
34302;SDS011;20785;50.020;19.916;2023-03-12T13:30:51;7.30;;;3.60;;
34302;SDS011;20785;50.020;19.916;2023-03-12T13:36:59;6.10;;;3.10;;
34302;SDS011;20785;50.020;19.916;2023-03-12T13:43:11;6.40;;;3.20;;
34302;SDS011;20785;50.020;19.916;2023-03-12T13:49:16;4.50;;;3.10;;
34302;SDS011;20785;50.020;19.916;2023-03-12T13:55:23;6.00;;;3.20;;
34302;SDS011;20785;50.020;19.916;2023-03-12T14:01:40;5.50;;;2.70;;
34302;SDS011;20785;50.020;19.916;2023-03-12T14:14:02;4.90;;;2.30;;
34302;SDS011;20785;50.020;19.916;2023-03-12T14:20:10;4.20;;;2.10;;
34302;SDS011;20785;50.020;19.916;2023-03-12T14:26:22;6.90;;;2.60;;
34302;SDS011;20785;50.020;19.916;2023-03-12T14:32:28;5.30;;;2.50;;
34302;SDS011;20785;50.020;19.916;2023-03-12T14:38:33;5.00;;;2.30;;
34302;SDS011;20785;50.020;19.916;2023-03-12T14:44:38;5.70;;;2.30;;
34302;SDS011;20785;50.020;19.916;2023-03-12T14:50:41;3.50;;;2.10;;
34302;SDS011;20785;50.020;19.916;2023-03-12T14:56:45;4.20;;;2.10;;
34302;SDS011;20785;50.020;19.916;2023-03-12T15:02:49;5.90;;;2.30;;
34302;SDS011;20785;50.020;19.916;2023-03-12T15:08:54;3.70;;;2.00;;
34302;SDS011;20785;50.020;19.916;2023-03-12T15:15:03;6.00;;;2.30;;
34302;SDS011;20785;50.020;19.916;2023-03-12T15:21:09;5.40;;;2.30;;
34302;SDS011;20785;50.020;19.916;2023-03-12T15:27:17;7.00;;;2.00;;
34302;SDS011;20785;50.020;19.916;2023-03-12T15:33:27;5.30;;;2.20;;
34302;SDS011;20785;50.020;19.916;2023-03-12T15:39:30;4.50;;;2.00;;
34302;SDS011;20785;50.020;19.916;2023-03-12T15:45:36;5.10;;;2.10;;
34302;SDS011;20785;50.020;19.916;2023-03-12T15:51:41;4.30;;;2.00;;
34302;SDS011;20785;50.020;19.916;2023-03-12T15:57:45;4.20;;;1.80;;
34302;SDS011;20785;50.020;19.916;2023-03-12T16:03:55;3.60;;;1.90;;
34302;SDS011;20785;50.020;19.916;2023-03-12T16:09:58;6.10;;;2.10;;
34302;SDS011;20785;50.020;19.916;2023-03-12T16:16:01;5.30;;;2.10;;
34302;SDS011;20785;50.020;19.916;2023-03-12T16:22:04;4.80;;;2.20;;
34302;SDS011;20785;50.020;19.916;2023-03-12T16:28:09;4.20;;;2.30;;
34302;SDS011;20785;50.020;19.916;2023-03-12T16:34:16;5.30;;;2.30;;
34302;SDS011;20785;50.020;19.916;2023-03-12T16:40:22;4.90;;;2.70;;
34302;SDS011;20785;50.020;19.916;2023-03-12T16:46:35;5.20;;;2.60;;
34302;SDS011;20785;50.020;19.916;2023-03-12T16:52:40;6.90;;;2.70;;
34302;SDS011;20785;50.020;19.916;2023-03-12T16:58:43;4.90;;;2.30;;
34302;SDS011;20785;50.020;19.916;2023-03-12T17:04:51;4.60;;;2.40;;
34302;SDS011;20785;50.020;19.916;2023-03-12T17:10:55;6.60;;;2.80;;
34302;SDS011;20785;50.020;19.916;2023-03-12T17:16:58;4.90;;;2.60;;
34302;SDS011;20785;50.020;19.916;2023-03-12T17:23:02;6.10;;;3.00;;
34302;SDS011;20785;50.020;19.916;2023-03-12T17:29:06;5.10;;;2.70;;
34302;SDS011;20785;50.020;19.916;2023-03-12T17:35:09;5.40;;;2.80;;
34302;SDS011;20785;50.020;19.916;2023-03-12T17:41:12;6.80;;;3.30;;
34302;SDS011;20785;50.020;19.916;2023-03-12T17:47:28;9.20;;;4.10;;
34302;SDS011;20785;50.020;19.916;2023-03-12T17:53:32;11.40;;;4.80;;
34302;SDS011;20785;50.020;19.916;2023-03-12T17:59:40;10.90;;;4.60;;
34302;SDS011;20785;50.020;19.916;2023-03-12T18:05:43;10.30;;;4.20;;
34302;SDS011;20785;50.020;19.916;2023-03-12T18:11:47;10.10;;;5.00;;
34302;SDS011;20785;50.020;19.916;2023-03-12T18:17:52;9.60;;;4.20;;
34302;SDS011;20785;50.020;19.916;2023-03-12T18:23:58;9.30;;;4.30;;
34302;SDS011;20785;50.020;19.916;2023-03-12T18:30:15;10.50;;;4.40;;
34302;SDS011;20785;50.020;19.916;2023-03-12T18:36:20;9.20;;;4.30;;
34302;SDS011;20785;50.020;19.916;2023-03-12T18:42:23;9.50;;;4.60;;
34302;SDS011;20785;50.020;19.916;2023-03-12T18:48:27;9.30;;;4.30;;
34302;SDS011;20785;50.020;19.916;2023-03-12T18:54:30;9.60;;;4.40;;
34302;SDS011;20785;50.020;19.916;2023-03-12T19:00:35;9.30;;;4.30;;
34302;SDS011;20785;50.020;19.916;2023-03-12T19:06:39;9.00;;;4.30;;
34302;SDS011;20785;50.020;19.916;2023-03-12T19:12:52;12.50;;;4.60;;
34302;SDS011;20785;50.020;19.916;2023-03-12T19:18:56;7.20;;;3.70;;
34302;SDS011;20785;50.020;19.916;2023-03-12T19:25:02;9.10;;;4.20;;
34302;SDS011;20785;50.020;19.916;2023-03-12T19:31:10;8.60;;;3.60;;
34302;SDS011;20785;50.020;19.916;2023-03-12T19:37:16;6.60;;;3.50;;
34302;SDS011;20785;50.020;19.916;2023-03-12T19:43:20;8.70;;;3.60;;
34302;SDS011;20785;50.020;19.916;2023-03-12T19:49:23;8.10;;;3.80;;
34302;SDS011;20785;50.020;19.916;2023-03-12T19:55:26;7.20;;;3.90;;
34302;SDS011;20785;50.020;19.916;2023-03-12T20:01:30;6.80;;;3.10;;
34302;SDS011;20785;50.020;19.916;2023-03-12T20:07:35;7.50;;;4.10;;
34302;SDS011;20785;50.020;19.916;2023-03-12T20:13:39;9.60;;;4.30;;
34302;SDS011;20785;50.020;19.916;2023-03-12T20:19:50;11.70;;;5.10;;
34302;SDS011;20785;50.020;19.916;2023-03-12T20:26:03;13.00;;;5.80;;
34302;SDS011;20785;50.020;19.916;2023-03-12T20:32:08;13.40;;;6.60;;
34302;SDS011;20785;50.020;19.916;2023-03-12T20:44:22;16.90;;;7.70;;
34302;SDS011;20785;50.020;19.916;2023-03-12T20:50:27;15.50;;;7.90;;
34302;SDS011;20785;50.020;19.916;2023-03-12T20:56:31;16.70;;;7.20;;
34302;SDS011;20785;50.020;19.916;2023-03-12T21:02:41;16.00;;;7.20;;
34302;SDS011;20785;50.020;19.916;2023-03-12T21:08:44;16.60;;;8.00;;
34302;SDS011;20785;50.020;19.916;2023-03-12T21:14:47;16.20;;;8.20;;
34302;SDS011;20785;50.020;19.916;2023-03-12T21:20:51;16.90;;;8.80;;
34302;SDS011;20785;50.020;19.916;2023-03-12T21:26:56;17.00;;;8.10;;
34302;SDS011;20785;50.020;19.916;2023-03-12T21:33:00;17.90;;;8.00;;
34302;SDS011;20785;50.020;19.916;2023-03-12T21:39:06;14.50;;;6.90;;
34302;SDS011;20785;50.020;19.916;2023-03-12T21:45:32;16.10;;;7.50;;
34302;SDS011;20785;50.020;19.916;2023-03-12T21:51:42;17.50;;;7.20;;
34302;SDS011;20785;50.020;19.916;2023-03-12T21:57:55;15.20;;;7.20;;
34302;SDS011;20785;50.020;19.916;2023-03-12T22:04:53;13.70;;;6.10;;
34302;SDS011;20785;50.020;19.916;2023-03-12T22:10:58;14.60;;;6.90;;
34302;SDS011;20785;50.020;19.916;2023-03-12T22:17:01;13.40;;;6.40;;
34302;SDS011;20785;50.020;19.916;2023-03-12T22:23:08;15.20;;;6.30;;
34302;SDS011;20785;50.020;19.916;2023-03-12T22:29:12;14.40;;;6.10;;
34302;SDS011;20785;50.020;19.916;2023-03-12T22:35:15;10.90;;;5.10;;
34302;SDS011;20785;50.020;19.916;2023-03-12T22:41:23;12.10;;;5.10;;
34302;SDS011;20785;50.020;19.916;2023-03-12T22:47:29;12.60;;;5.00;;
34302;SDS011;20785;50.020;19.916;2023-03-12T22:53:32;9.70;;;4.70;;
34302;SDS011;20785;50.020;19.916;2023-03-12T22:59:35;10.30;;;4.50;;
34302;SDS011;20785;50.020;19.916;2023-03-12T23:05:39;11.70;;;5.30;;
34302;SDS011;20785;50.020;19.916;2023-03-12T23:11:42;9.80;;;4.20;;
34302;SDS011;20785;50.020;19.916;2023-03-12T23:17:46;7.70;;;3.80;;
34302;SDS011;20785;50.020;19.916;2023-03-12T23:23:49;6.90;;;3.30;;
34302;SDS011;20785;50.020;19.916;2023-03-12T23:30:01;8.40;;;3.50;;
34302;SDS011;20785;50.020;19.916;2023-03-12T23:37:00;7.50;;;3.20;;
34302;SDS011;20785;50.020;19.916;2023-03-12T23:43:04;7.60;;;3.60;;
34302;SDS011;20785;50.020;19.916;2023-03-12T23:49:07;8.20;;;3.80;;
34302;SDS011;20785;50.020;19.916;2023-03-12T23:55:11;9.50;;;3.50;;
